Time;durP1;ratioP1;P1;durP2;ratioP2;P2;SDS_P1;SDS_P2;PMS_P1;PMS_P2;Temp;Humidity;BMP_temperature;BMP_pressure;BME280_temperature;BME280_humidity;BME280_pressure;Samples;Min_cycle;Max_cycle;Signal;HPM_P1;HPM_P2
2021/03/09 00:01:31;;;;;;;51.73;24.73;;;;;;;7.25;61.46;100730.47;5063940;28;20465;-77
2021/03/09 00:03:58;;;;;;;54.33;27.07;;;;;;;6.92;62.99;100746.00;5063593;28;20456;-76
2021/03/09 00:06:24;;;;;;;47.67;26.17;;;;;;;6.66;64.37;100742.44;5063664;28;20485;-76
2021/03/09 00:08:50;;;;;;;50.40;25.47;;;;;;;6.92;63.47;100739.84;5063983;28;20480;-75
2021/03/09 00:11:16;;;;;;;55.90;27.03;;;;;;;6.86;63.92;100735.78;5063079;28;20469;-76
2021/03/09 00:13:43;;;;;;;60.13;29.00;;;;;;;6.33;65.85;100735.78;5064415;28;20417;-75
2021/03/09 00:16:10;;;;;;;46.97;23.40;;;;;;;6.78;64.48;100730.97;5062375;28;20461;-75
2021/03/09 00:18:36;;;;;;;56.90;27.47;;;;;;;7.01;63.92;100739.19;5063565;28;20902;-75
2021/03/09 00:21:02;;;;;;;56.80;28.30;;;;;;;6.81;64.30;100727.28;5062703;28;21082;-75
2021/03/09 00:23:29;;;;;;;55.03;27.40;;;;;;;6.75;64.66;100736.53;5064016;28;20426;-75
2021/03/09 00:25:56;;;;;;;52.20;26.70;;;;;;;6.45;65.75;100731.47;5061888;28;20492;-75
2021/03/09 00:28:22;;;;;;;50.03;24.33;;;;;;;6.35;66.02;100720.63;5063696;28;20507;-74
2021/03/09 00:30:48;;;;;;;49.77;26.20;;;;;;;6.49;65.81;100732.09;5063060;28;20495;-74
2021/03/09 00:33:16;;;;;;;55.90;27.77;;;;;;;6.79;65.12;100730.03;5063930;28;20441;-75
2021/03/09 00:35:42;;;;;;;58.77;27.40;;;;;;;6.72;65.46;100725.25;5062986;28;20473;-75
2021/03/09 00:38:08;;;;;;;48.70;26.20;;;;;;;6.82;65.58;100728.97;5063752;28;20464;-75
2021/03/09 00:40:34;;;;;;;57.70;28.60;;;;;;;7.16;64.34;100722.19;5061910;28;20472;-75
2021/03/09 00:43:01;;;;;;;54.03;26.60;;;;;;;7.09;64.67;100717.41;5064117;28;20467;-75
2021/03/09 00:45:27;;;;;;;60.37;28.40;;;;;;;6.79;65.61;100721.22;5062675;28;20893;-75
2021/03/09 00:47:53;;;;;;;57.77;28.17;;;;;;;6.56;66.59;100728.94;5064019;28;20457;-75
2021/03/09 00:50:20;;;;;;;52.03;27.37;;;;;;;6.66;65.88;100717.69;5063078;28;20457;-75
2021/03/09 00:52:47;;;;;;;50.47;26.53;;;;;;;7.00;64.80;100726.03;5063940;28;20463;-75
2021/03/09 00:55:13;;;;;;;52.60;27.23;;;;;;;6.93;65.21;100717.63;5063014;28;20441;-74
2021/03/09 00:57:39;;;;;;;47.13;26.10;;;;;;;6.59;66.16;100714.59;5062342;28;20831;-75
2021/03/09 01:00:07;;;;;;;54.67;29.57;;;;;;;6.35;67.31;100703.81;5063641;28;20751;-75
2021/03/09 01:02:33;;;;;;;56.20;27.83;;;;;;;6.33;67.54;100703.91;5063921;28;20453;-75
2021/03/09 01:04:59;;;;;;;51.20;27.00;;;;;;;6.34;67.19;100710.09;5063729;28;20512;-75
2021/03/09 01:07:27;;;;;;;49.87;27.20;;;;;;;5.86;68.85;100694.59;5062379;28;20511;-75
2021/03/09 01:09:54;;;;;;;54.93;27.50;;;;;;;5.83;68.69;100702.72;5063673;28;20449;-75
2021/03/09 01:12:20;;;;;;;58.47;29.80;;;;;;;5.79;69.44;100693.28;5063736;28;20493;-76
2021/03/09 01:14:46;;;;;;;56.03;28.30;;;;;;;6.18;68.42;100694.28;5063195;28;20457;-74
2021/03/09 01:17:12;;;;;;;53.53;26.67;;;;;;;6.05;68.69;100690.78;5062892;28;20870;-76
2021/03/09 01:19:39;;;;;;;62.57;26.90;;;;;;;6.06;68.92;100681.84;5063126;28;20544;-75
2021/03/09 01:22:05;;;;;;;55.23;27.10;;;;;;;6.33;68.02;100681.81;5062954;28;20480;-75
2021/03/09 01:24:32;;;;;;;63.20;29.37;;;;;;;5.96;69.36;100682.44;5063093;28;20456;-75
2021/03/09 01:26:58;;;;;;;65.43;29.07;;;;;;;6.10;68.75;100678.03;5061075;28;20896;-76
2021/03/09 01:29:25;;;;;;;59.33;28.53;;;;;;;6.09;68.33;100673.69;5062983;28;20425;-76
2021/03/09 01:31:51;;;;;;;59.37;29.23;;;;;;;6.12;68.93;100676.13;5061978;28;20468;-75
2021/03/09 01:34:17;;;;;;;64.73;30.63;;;;;;;6.13;68.66;100670.72;5063218;28;20509;-75
2021/03/09 01:36:43;;;;;;;57.73;28.57;;;;;;;6.12;68.78;100673.47;5061420;28;20500;-75
2021/03/09 01:39:10;;;;;;;61.13;29.77;;;;;;;5.67;70.28;100668.38;5063234;28;20448;-76
2021/03/09 01:41:37;;;;;;;52.33;27.20;;;;;;;6.06;69.23;100656.16;5061559;28;20469;-76
2021/03/09 01:44:04;;;;;;;55.90;27.50;;;;;;;5.71;69.84;100661.94;5062210;28;20464;-75
2021/03/09 01:46:31;;;;;;;56.37;28.17;;;;;;;5.99;69.16;100658.38;5061474;28;20480;-75
2021/03/09 01:48:58;;;;;;;51.63;25.80;;;;;;;5.61;69.96;100648.41;5062301;28;20448;-76
2021/03/09 01:51:24;;;;;;;48.30;24.03;;;;;;;6.16;68.97;100653.72;5061708;28;20542;-75
2021/03/09 01:53:50;;;;;;;48.53;23.40;;;;;;;6.00;69.60;100646.78;5061230;28;20487;-76
2021/03/09 01:56:17;;;;;;;47.03;21.83;;;;;;;5.69;69.84;100641.75;5061361;28;20502;-76
2021/03/09 01:58:48;;;;;;;46.77;21.83;;;;;;;5.77;69.84;100644.78;5061239;28;20459;-76
2021/03/09 02:01:14;;;;;;;46.73;22.70;;;;;;;5.82;69.77;100637.38;5061859;28;20473;-74
2021/03/09 02:03:40;;;;;;;47.87;22.03;;;;;;;5.89;70.05;100633.34;5061905;28;20449;-75
2021/03/09 02:06:07;;;;;;;44.97;23.17;;;;;;;5.52;70.22;100630.47;5060750;28;20503;-75
2021/03/09 02:08:34;;;;;;;48.30;23.63;;;;;;;6.02;68.71;100630.75;5061709;28;20445;-75
2021/03/09 02:11:00;;;;;;;43.77;21.10;;;;;;;5.81;69.40;100633.84;5060795;28;20491;-75
2021/03/09 02:13:39;;;;;;;43.63;22.27;;;;;;;6.29;67.89;100628.06;5061629;28;20445;-76
2021/03/09 02:16:14;;;;;;;45.30;21.63;;;;;;;5.72;69.31;100620.34;5060790;28;21030;-76
2021/03/09 02:18:45;;;;;;;37.37;19.73;;;;;;;5.60;69.94;100619.34;5061610;28;20463;-76
2021/03/09 02:21:28;;;;;;;46.50;22.90;;;;;;;5.65;70.05;100615.44;5061455;28;21063;-76
2021/03/09 02:24:07;;;;;;;44.33;22.53;;;;;;;5.58;70.10;100607.97;5061697;28;20444;-74
2021/03/09 02:27:10;;;;;;;41.87;21.60;;;;;;;5.91;69.45;100602.25;5060186;28;20488;-75
2021/03/09 02:30:02;;;;;;;47.30;21.27;;;;;;;5.78;70.00;100599.56;5061180;28;20468;-76
2021/03/09 02:32:30;;;;;;;45.03;21.50;;;;;;;5.73;70.44;100598.16;5060568;28;20476;-76
2021/03/09 02:34:58;;;;;;;45.60;22.07;;;;;;;5.93;70.12;100600.34;5060964;28;20464;-76
2021/03/09 02:37:26;;;;;;;49.27;23.90;;;;;;;6.04;69.49;100597.00;5060618;28;20465;-75
2021/03/09 02:39:53;;;;;;;51.47;25.43;;;;;;;5.67;70.29;100586.16;5061162;28;20477;-75
2021/03/09 02:42:22;;;;;;;56.47;25.77;;;;;;;5.59;70.98;100591.97;5060833;28;20484;-75
2021/03/09 02:44:51;;;;;;;52.77;27.70;;;;;;;5.87;69.54;100590.16;5060803;28;20464;-75
2021/03/09 02:47:17;;;;;;;56.70;27.30;;;;;;;5.89;70.06;100582.94;5060580;28;20480;-76
2021/03/09 02:49:44;;;;;;;61.57;28.17;;;;;;;5.62;70.85;100585.59;5061367;28;20456;-75
2021/03/09 02:52:14;;;;;;;70.77;31.73;;;;;;;5.70;70.98;100582.47;5060578;28;20473;-75
2021/03/09 02:54:41;;;;;;;65.33;29.37;;;;;;;5.66;71.38;100577.34;5060716;28;20457;-76
2021/03/09 02:57:08;;;;;;;74.83;35.13;;;;;;;5.53;71.62;100575.59;5060171;28;20507;-75
2021/03/09 02:59:35;;;;;;;87.30;38.57;;;;;;;5.74;71.11;100576.00;5061069;28;20432;-75
2021/03/09 03:02:03;;;;;;;83.60;34.80;;;;;;;5.50;71.78;100568.69;5060983;28;20522;-75
2021/03/09 03:04:29;;;;;;;82.93;39.10;;;;;;;5.15;72.52;100563.88;5060343;28;20452;-75
2021/03/09 03:06:55;;;;;;;81.10;36.97;;;;;;;5.38;72.44;100569.47;5060153;28;20507;-74
2021/03/09 03:09:22;;;;;;;72.50;37.57;;;;;;;5.41;72.09;100569.28;5060913;28;20456;-75
2021/03/09 03:11:50;;;;;;;84.07;36.30;;;;;;;5.69;71.48;100570.13;5059796;28;20496;-75
2021/03/09 03:14:17;;;;;;;81.23;36.60;;;;;;;5.15;72.57;100566.50;5060742;28;20445;-76
2021/03/09 03:16:44;;;;;;;92.20;37.17;;;;;;;5.61;71.38;100555.59;5060133;28;20480;-76
2021/03/09 03:19:13;;;;;;;84.43;35.40;;;;;;;5.55;71.20;100555.97;5060850;28;20506;-76
2021/03/09 03:21:40;;;;;;;82.40;36.13;;;;;;;5.67;70.45;100551.66;5060461;28;20484;-76
2021/03/09 03:24:09;;;;;;;78.53;34.90;;;;;;;5.45;71.42;100554.88;5061093;28;20446;-77
2021/03/09 03:26:39;;;;;;;72.20;33.67;;;;;;;5.19;72.80;100548.63;5059724;28;20488;-76
2021/03/09 03:29:06;;;;;;;88.03;35.57;;;;;;;5.58;71.62;100555.78;5060249;28;20448;-76
2021/03/09 03:31:33;;;;;;;80.50;35.97;;;;;;;5.83;70.81;100544.41;5060534;28;20571;-76
2021/03/09 03:33:59;;;;;;;78.37;35.13;;;;;;;5.61;71.26;100547.63;5060549;28;20453;-74
2021/03/09 03:36:27;;;;;;;71.50;33.23;;;;;;;5.72;70.89;100556.69;5060102;28;20491;-75
2021/03/09 03:38:55;;;;;;;74.30;32.30;;;;;;;5.65;70.86;100542.97;5059993;28;20457;-76
2021/03/09 03:41:22;;;;;;;70.73;33.97;;;;;;;5.36;71.40;100543.06;5060504;28;20481;-76
2021/03/09 03:43:48;;;;;;;89.67;37.20;;;;;;;5.74;70.72;100537.03;5060647;28;20441;-75
2021/03/09 03:46:15;;;;;;;73.43;34.43;;;;;;;5.74;70.93;100538.84;5059637;28;20492;-75
2021/03/09 03:48:42;;;;;;;81.10;34.60;;;;;;;5.56;71.12;100541.78;5060325;28;20453;-76
2021/03/09 03:51:10;;;;;;;80.43;34.33;;;;;;;5.11;72.35;100524.41;5061534;28;20487;-75
2021/03/09 03:53:45;;;;;;;78.53;34.80;;;;;;;5.58;70.74;100531.06;5064481;28;20483;-75
2021/03/09 03:56:17;;;;;;;69.90;31.97;;;;;;;5.55;71.01;100532.09;5062802;28;20480;-74
2021/03/09 03:58:45;;;;;;;69.70;32.30;;;;;;;5.72;70.48;100532.81;5094512;28;20532;-74
2021/03/09 04:01:13;;;;;;;78.90;31.90;;;;;;;5.55;70.69;100531.25;5063996;28;20487;-75
2021/03/09 04:03:39;;;;;;;69.77;31.23;;;;;;;5.58;70.35;100531.06;5063697;28;20447;-75
2021/03/09 04:06:07;;;;;;;68.57;29.00;;;;;;;5.32;71.23;100522.19;5063032;28;20481;-76
2021/03/09 04:08:34;;;;;;;60.90;29.87;;;;;;;5.17;71.40;100516.06;5063642;28;20459;-75
2021/03/09 04:11:01;;;;;;;62.20;28.37;;;;;;;5.35;71.10;100519.34;5063245;28;20468;-76
2021/03/09 04:13:28;;;;;;;75.20;30.80;;;;;;;5.62;70.63;100521.94;5063930;28;20468;-75
2021/03/09 04:15:56;;;;;;;66.77;29.07;;;;;;;5.24;71.38;100507.63;5063048;28;21211;-75
2021/03/09 04:18:23;;;;;;;69.03;30.80;;;;;;;5.50;70.63;100512.16;5063798;28;20461;-75
2021/03/09 04:20:49;;;;;;;68.30;33.50;;;;;;;4.94;71.67;100505.13;5063186;28;20762;-75
2021/03/09 04:23:16;;;;;;;63.53;30.20;;;;;;;5.33;71.15;100507.94;5064088;28;20448;-75
2021/03/09 04:25:43;;;;;;;66.23;32.63;;;;;;;4.99;72.07;100505.69;5061982;28;20543;-75
2021/03/09 04:28:11;;;;;;;67.87;29.40;;;;;;;4.92;71.73;100501.75;5062801;28;21019;-75
2021/03/09 04:30:38;;;;;;;70.10;30.47;;;;;;;5.17;71.45;100485.09;5063289;28;20473;-75
2021/03/09 04:33:06;;;;;;;66.77;29.80;;;;;;;5.01;72.19;100495.84;5063958;28;20437;-75
2021/03/09 04:35:33;;;;;;;77.33;33.27;;;;;;;5.08;72.14;100498.94;5061612;28;20469;-76
2021/03/09 04:38:00;;;;;;;74.83;32.43;;;;;;;5.06;72.04;100492.91;5063721;28;20555;-75
2021/03/09 04:40:26;;;;;;;73.17;32.53;;;;;;;5.66;70.38;100484.50;5063151;28;20473;-75
2021/03/09 04:42:53;;;;;;;79.23;32.00;;;;;;;5.21;71.35;100488.44;5064097;28;20418;-76
2021/03/09 04:45:20;;;;;;;84.83;35.00;;;;;;;5.04;71.65;100489.50;5062279;28;20580;-75
2021/03/09 04:47:46;;;;;;;70.67;31.80;;;;;;;5.26;71.02;100489.81;5063298;28;20476;-75
2021/03/09 04:50:14;;;;;;;77.70;34.40;;;;;;;5.22;71.43;100490.09;5062551;28;20563;-76
2021/03/09 04:52:40;;;;;;;68.20;30.97;;;;;;;5.42;70.65;100494.94;5063518;28;20459;-75
2021/03/09 04:55:08;;;;;;;78.70;34.00;;;;;;;5.40;71.02;100480.06;5061692;28;20460;-76
2021/03/09 04:57:39;;;;;;;84.87;34.10;;;;;;;5.27;70.89;100483.53;5062250;28;20538;-76
2021/03/09 05:00:08;;;;;;;97.90;35.37;;;;;;;5.20;71.55;100487.56;5042508;28;20457;-76
2021/03/09 05:02:35;;;;;;;74.93;34.10;;;;;;;5.38;70.77;100479.34;5049323;28;20449;-76
2021/03/09 05:05:01;;;;;;;85.43;32.83;;;;;;;5.34;70.79;100476.03;5062330;28;20453;-76
2021/03/09 05:07:27;;;;;;;82.03;34.30;;;;;;;5.52;70.31;100484.59;5062496;28;20507;-76
2021/03/09 05:09:54;;;;;;;82.63;35.87;;;;;;;5.52;69.79;100473.13;5063165;28;20433;-76
2021/03/09 05:12:20;;;;;;;82.83;32.70;;;;;;;5.08;71.42;100468.00;5061908;28;20987;-76
2021/03/09 05:14:46;;;;;;;76.67;34.83;;;;;;;5.07;71.53;100468.13;5063423;28;20447;-76
2021/03/09 05:17:13;;;;;;;75.00;34.43;;;;;;;5.22;71.37;100471.56;5061725;28;20481;-76
2021/03/09 05:19:40;;;;;;;82.67;35.80;;;;;;;5.23;71.18;100479.41;5062477;28;20518;-76
2021/03/09 05:22:06;;;;;;;81.30;36.43;;;;;;;4.91;72.72;100481.50;5062454;28;20471;-76
2021/03/09 05:24:33;;;;;;;85.70;34.53;;;;;;;5.54;70.81;100476.50;5062192;28;20452;-76
2021/03/09 05:26:59;;;;;;;78.73;34.83;;;;;;;4.99;72.41;100471.25;5056201;28;20485;-76
2021/03/09 05:29:25;;;;;;;91.23;37.00;;;;;;;5.36;71.21;100468.84;5059720;28;21005;-76
2021/03/09 05:31:52;;;;;;;84.47;32.57;;;;;;;4.93;72.38;100463.72;5052827;28;20489;-75
2021/03/09 05:34:18;;;;;;;97.33;39.17;;;;;;;4.81;73.08;100460.06;5061227;28;20453;-76
2021/03/09 05:36:45;;;;;;;75.50;33.60;;;;;;;5.11;71.71;100466.13;5060119;28;20491;-75
2021/03/09 05:39:11;;;;;;;97.03;38.00;;;;;;;4.81;72.89;100464.47;5061142;28;20445;-76
2021/03/09 05:41:38;;;;;;;94.00;36.13;;;;;;;5.44;71.20;100457.72;5054288;28;20488;-76
2021/03/09 05:44:04;;;;;;;91.43;35.60;;;;;;;5.03;72.40;100459.50;5057991;28;20452;-76
2021/03/09 05:46:31;;;;;;;79.67;32.10;;;;;;;5.45;71.16;100460.28;5060544;28;20548;-76
2021/03/09 05:48:58;;;;;;;91.33;36.17;;;;;;;5.11;71.95;100455.53;5041396;28;20462;-76
2021/03/09 05:51:24;;;;;;;85.70;33.87;;;;;;;5.47;70.71;100450.41;5045934;28;20484;-77
2021/03/09 05:53:52;;;;;;;89.23;33.47;;;;;;;5.51;70.85;100450.22;5061334;28;20441;-76
2021/03/09 05:56:18;;;;;;;89.13;36.57;;;;;;;5.18;71.58;100455.00;5059979;28;20496;-76
2021/03/09 05:58:44;;;;;;;83.57;34.97;;;;;;;5.38;70.83;100455.47;5059768;28;20518;-76
2021/03/09 06:01:11;;;;;;;86.23;35.57;;;;;;;5.49;70.84;100455.63;5056512;28;20500;-77
2021/03/09 06:03:37;;;;;;;88.33;35.20;;;;;;;5.26;71.29;100447.41;5053190;28;20452;-77
2021/03/09 06:06:04;;;;;;;93.63;38.33;;;;;;;5.12;71.68;100455.41;5054226;28;20488;-76
2021/03/09 06:08:31;;;;;;;101.23;35.50;;;;;;;5.09;71.86;100448.50;5049707;28;20464;-76
2021/03/09 06:11:13;;;;;;;77.73;33.73;;;;;;;4.94;72.20;100446.00;5052681;28;20472;-76
2021/03/09 06:13:39;;;;;;;89.87;36.13;;;;;;;4.82;72.68;100445.00;5050086;28;20531;-77
2021/03/09 06:16:06;;;;;;;96.90;37.47;;;;;;;4.88;72.67;100436.66;5045124;28;20559;-76
2021/03/09 06:18:32;;;;;;;92.33;36.87;;;;;;;5.12;72.14;100438.66;5054885;28;20470;-76
2021/03/09 06:21:12;;;;;;;94.00;37.50;;;;;;;5.03;71.97;100434.81;5052367;28;20523;-76
2021/03/09 06:23:39;;;;;;;85.03;35.13;;;;;;;4.96;72.60;100439.66;5060307;28;20470;-77
2021/03/09 06:26:34;;;;;;;81.07;34.50;;;;;;;5.31;71.53;100431.16;5047843;28;20488;-77
2021/03/09 06:29:11;;;;;;;90.60;36.87;;;;;;;5.16;71.71;100441.00;5051019;28;20473;-79
2021/03/09 06:31:39;;;;;;;91.87;36.40;;;;;;;5.18;71.93;100431.16;5055141;28;21066;-78
2021/03/09 06:34:25;;;;;;;78.87;33.97;;;;;;;5.28;71.36;100434.88;5046146;28;20453;-77
2021/03/09 06:37:06;;;;;;;85.70;35.43;;;;;;;5.22;71.45;100429.97;5039152;28;21106;-78
2021/03/09 06:39:43;;;;;;;72.37;34.07;;;;;;;4.90;72.36;100430.31;5056810;28;20452;-77
2021/03/09 06:42:11;;;;;;;82.90;35.57;;;;;;;5.27;71.34;100433.19;5057041;28;21005;-78
2021/03/09 06:44:39;;;;;;;85.23;35.70;;;;;;;5.07;71.78;100431.03;5050143;28;20445;-77
2021/03/09 06:47:05;;;;;;;74.50;29.80;;;;;;;4.69;72.68;100432.53;5059089;28;20484;-77
2021/03/09 06:49:32;;;;;;;74.83;31.80;;;;;;;4.84;72.93;100424.56;5052190;28;20459;-77
2021/03/09 06:52:12;;;;;;;73.53;32.40;;;;;;;4.93;72.31;100428.41;5043190;28;20476;-77
2021/03/09 06:54:43;;;;;;;80.00;35.90;;;;;;;5.03;72.52;100419.75;5052173;28;20953;-77
2021/03/09 06:57:10;;;;;;;77.10;31.20;;;;;;;5.41;71.21;100428.75;5038965;28;20481;-77
2021/03/09 06:59:37;;;;;;;84.57;34.27;;;;;;;5.25;71.65;100421.00;5039784;28;20469;-77
2021/03/09 07:02:05;;;;;;;73.27;34.10;;;;;;;5.09;72.17;100421.16;5051680;28;20467;-78
2021/03/09 07:04:42;;;;;;;77.17;31.63;;;;;;;5.09;72.15;100421.16;5054336;28;20471;-78
2021/03/09 07:07:10;;;;;;;70.80;31.80;;;;;;;4.85;72.42;100427.09;5057252;28;20500;-77
2021/03/09 07:09:36;;;;;;;75.73;36.63;;;;;;;4.94;72.44;100420.34;5059521;28;20508;-77
2021/03/09 07:12:04;;;;;;;75.63;35.03;;;;;;;5.18;71.53;100432.97;5059759;28;20504;-77
2021/03/09 07:14:33;;;;;;;73.23;33.80;;;;;;;5.53;70.84;100424.44;5059673;28;20463;-77
2021/03/09 07:17:02;;;;;;;71.70;31.10;;;;;;;5.05;71.72;100431.13;5055475;28;20541;-77
2021/03/09 07:19:34;;;;;;;81.73;34.73;;;;;;;5.35;70.74;100418.59;5055941;28;20518;-78
2021/03/09 07:22:03;;;;;;;77.30;35.97;;;;;;;4.85;72.41;100426.25;5050723;28;20628;-77
2021/03/09 07:24:31;;;;;;;77.17;35.00;;;;;;;4.64;73.06;100426.69;5056488;28;20964;-77
2021/03/09 07:27:12;;;;;;;66.30;30.50;;;;;;;4.76;72.90;100422.41;5042933;28;20547;-77
2021/03/09 07:29:46;;;;;;;70.13;31.00;;;;;;;4.86;72.65;100422.66;5063228;28;20479;-77
2021/03/09 07:32:15;;;;;;;72.17;34.00;;;;;;;4.81;72.04;100428.25;5063311;28;20468;-77
2021/03/09 07:34:41;;;;;;;74.87;33.60;;;;;;;4.77;73.11;100424.09;5062361;28;20506;-77
2021/03/09 07:37:08;;;;;;;73.07;32.20;;;;;;;4.81;72.68;100425.63;5057473;28;20471;-79
2021/03/09 07:39:35;;;;;;;71.23;31.23;;;;;;;4.99;71.84;100439.44;5062767;28;20967;-79
2021/03/09 07:42:01;;;;;;;67.67;32.33;;;;;;;4.70;72.39;100425.44;5062312;28;20484;-79
2021/03/09 07:44:29;;;;;;;70.00;29.47;;;;;;;5.05;71.92;100425.81;5064124;28;20491;-80
2021/03/09 07:46:58;;;;;;;63.27;31.30;;;;;;;4.84;72.03;100421.91;5062570;28;20479;-79
2021/03/09 07:49:25;;;;;;;71.60;29.83;;;;;;;4.99;71.76;100434.16;5061558;28;20800;-81
2021/03/09 07:52:11;;;;;;;67.83;30.23;;;;;;;4.76;72.11;100427.72;5062955;28;20469;-80
2021/03/09 07:54:38;;;;;;;65.17;28.30;;;;;;;4.96;72.15;100422.91;5063226;28;20452;-80
2021/03/09 07:57:17;;;;;;;60.10;27.07;;;;;;;5.17;71.44;100424.13;5060382;28;20830;-79
2021/03/09 07:59:55;;;;;;;70.70;28.43;;;;;;;5.23;71.33;100425.56;5070633;28;20432;-80
2021/03/09 08:02:43;;;;;;;63.47;29.10;;;;;;;5.13;71.85;100422.66;5070517;28;20487;-81
2021/03/09 08:05:13;;;;;;;61.97;27.47;;;;;;;5.03;71.30;100426.84;5061105;28;20448;-81
2021/03/09 08:07:51;;;;;;;57.80;30.50;;;;;;;4.40;73.25;100422.97;5063038;28;20439;-80
2021/03/09 08:10:45;;;;;;;56.50;27.63;;;;;;;4.78;72.34;100419.66;5061804;28;20444;-79
2021/03/09 08:13:30;;;;;;;52.67;25.67;;;;;;;5.05;71.45;100417.88;5062073;28;20448;-81
2021/03/09 08:16:30;;;;;;;53.37;26.03;;;;;;;4.77;72.09;100425.91;5042375;28;20472;-79
2021/03/09 08:19:06;;;;;;;59.63;27.17;;;;;;;4.96;71.66;100417.59;5042129;28;20640;-81
2021/03/09 08:21:55;;;;;;;57.10;26.33;;;;;;;4.75;72.75;100427.81;5057506;28;20463;-78
2021/03/09 08:24:52;;;;;;;60.93;29.87;;;;;;;4.74;72.60;100419.03;5062365;28;20463;-81
2021/03/09 08:27:45;;;;;;;65.13;28.70;;;;;;;5.09;71.13;100416.69;5057970;28;20507;-77
2021/03/09 08:30:36;;;;;;;56.60;29.03;;;;;;;5.38;70.27;100415.69;5018308;28;20451;-79
2021/03/09 08:33:33;;;;;;;56.90;25.70;;;;;;;5.35;70.34;100413.28;5020307;28;20605;-80
2021/03/09 08:36:02;;;;;;;66.30;29.67;;;;;;;5.65;69.72;100413.84;5018092;28;20471;-77
2021/03/09 08:38:29;;;;;;;52.77;28.83;;;;;;;5.04;70.91;100410.84;5019006;28;20463;-80
2021/03/09 08:41:09;;;;;;;50.60;26.10;;;;;;;4.92;71.03;100414.31;5018879;28;20482;-80
2021/03/09 08:43:37;;;;;;;50.10;26.40;;;;;;;5.14;70.65;100411.13;5019722;28;20446;-80
2021/03/09 08:46:05;;;;;;;48.20;23.63;;;;;;;5.19;70.33;100410.78;5018600;28;20482;-80
2021/03/09 08:48:58;;;;;;;49.97;23.77;;;;;;;5.29;70.03;100414.53;5018957;28;20471;-82
2021/03/09 08:51:53;;;;;;;47.83;23.60;;;;;;;5.19;71.04;100403.69;5017557;28;20550;-80
2021/03/09 08:54:35;;;;;;;42.97;23.03;;;;;;;4.94;70.95;100404.47;5019111;28;20461;-82
2021/03/09 08:57:03;;;;;;;46.40;24.40;;;;;;;5.24;70.14;100401.59;5017605;28;20712;-80
2021/03/09 08:59:31;;;;;;;43.13;22.00;;;;;;;4.85;71.16;100403.25;5018846;28;20497;-80
2021/03/09 09:02:10;;;;;;;42.93;22.53;;;;;;;4.67;71.69;100404.44;5019157;28;20479;-81
2021/03/09 09:04:36;;;;;;;45.67;24.27;;;;;;;4.89;71.01;100401.25;5017918;28;20481;-82
2021/03/09 09:07:24;;;;;;;46.10;23.83;;;;;;;4.90;72.02;100393.22;5046642;28;20846;-80
2021/03/09 09:09:51;;;;;;;48.13;24.53;;;;;;;5.40;70.29;100398.75;5061849;28;20456;-81
2021/03/09 09:12:24;;;;;;;49.00;22.80;;;;;;;5.07;71.11;100399.22;5051387;28;20477;-81
2021/03/09 09:15:19;;;;;;;45.10;23.70;;;;;;;4.91;72.02;100402.00;5041825;28;20469;-81
2021/03/09 09:17:51;;;;;;;46.80;23.13;;;;;;;4.80;71.64;100394.78;5049105;28;20481;-81
2021/03/09 09:20:20;;;;;;;48.00;21.50;;;;;;;4.89;71.92;100409.22;5043448;28;20505;-80
2021/03/09 09:22:50;;;;;;;40.73;24.57;;;;;;;4.43;72.66;100407.75;5062051;28;20471;-79
2021/03/09 09:25:17;;;;;;;36.70;21.87;;;;;;;4.90;71.54;100402.97;5060010;28;20457;-78
2021/03/09 09:27:46;;;;;;;43.97;22.83;;;;;;;5.01;71.01;100403.09;5059362;28;20564;-80
2021/03/09 09:30:15;;;;;;;42.00;23.60;;;;;;;4.69;72.22;100397.28;5061017;28;20433;-79
2021/03/09 09:32:53;;;;;;;48.27;24.20;;;;;;;4.90;71.49;100402.97;5061628;28;20494;-79
2021/03/09 09:35:20;;;;;;;43.17;22.47;;;;;;;5.14;70.83;100394.34;5059593;28;20455;-80
2021/03/09 09:37:50;;;;;;;42.23;22.37;;;;;;;5.51;69.58;100395.38;5061228;28;20456;-78
2021/03/09 09:40:18;;;;;;;37.17;20.50;;;;;;;5.05;71.09;100393.16;5059522;28;20514;-78
2021/03/09 09:42:58;;;;;;;30.30;20.00;;;;;;;4.88;70.94;100395.13;5060606;28;20880;-78
2021/03/09 09:45:26;;;;;;;36.43;21.47;;;;;;;4.32;72.18;100383.72;5060792;28;20502;-79
2021/03/09 09:47:53;;;;;;;35.57;19.57;;;;;;;4.38;72.24;100401.88;5060147;28;20457;-80
2021/03/09 09:50:20;;;;;;;32.93;19.53;;;;;;;4.39;72.74;100394.78;5059672;28;20950;-79
2021/03/09 09:53:00;;;;;;;29.17;17.83;;;;;;;4.39;72.17;100394.78;5060986;28;20521;-78
2021/03/09 09:55:28;;;;;;;32.07;19.13;;;;;;;4.44;72.30;100401.47;5059701;28;20462;-79
2021/03/09 09:57:56;;;;;;;34.80;19.00;;;;;;;4.50;72.33;100393.16;5060048;28;20550;-79
2021/03/09 10:00:27;;;;;;;32.53;17.97;;;;;;;5.24;70.88;100396.28;5072267;28;20842;-77
2021/03/09 10:03:11;;;;;;;33.77;18.40;;;;;;;5.30;70.12;100400.31;5078673;28;20445;-79
2021/03/09 10:05:38;;;;;;;39.23;19.80;;;;;;;5.29;69.91;100398.63;5055772;28;20889;-78
2021/03/09 10:08:06;;;;;;;34.57;19.27;;;;;;;4.97;70.44;100398.97;5060642;28;20456;-78
2021/03/09 10:10:32;;;;;;;33.77;19.60;;;;;;;5.05;70.57;100399.31;5052873;28;20499;-79
2021/03/09 10:12:59;;;;;;;30.37;19.20;;;;;;;5.37;70.01;100400.78;5040451;28;20541;-79
2021/03/09 10:15:44;;;;;;;34.23;19.50;;;;;;;5.25;69.67;100387.38;5040481;28;20475;-78
2021/03/09 10:18:15;;;;;;;36.17;19.37;;;;;;;5.45;69.34;100393.13;5052293;28;20494;-79
2021/03/09 10:20:41;;;;;;;39.20;19.07;;;;;;;4.95;70.69;100395.56;5059827;28;20469;-78
2021/03/09 10:23:09;;;;;;;35.47;20.27;;;;;;;5.13;70.14;100392.66;5060164;28;20451;-78
2021/03/09 10:25:39;;;;;;;32.00;18.33;;;;;;;5.14;70.31;100394.34;5058300;28;20465;-78
2021/03/09 10:28:06;;;;;;;38.30;19.53;;;;;;;5.65;69.16;100391.78;5058288;28;20531;-79
2021/03/09 10:30:39;;;;;;;30.10;18.23;;;;;;;5.22;70.43;100402.63;5058533;28;20472;-80
2021/03/09 10:33:10;;;;;;;37.10;18.90;;;;;;;5.53;69.54;100400.56;5059470;28;20441;-79
2021/03/09 10:36:04;;;;;;;32.80;19.37;;;;;;;6.10;68.04;100396.69;5058760;28;20592;-81
2021/03/09 10:38:31;;;;;;;30.67;19.40;;;;;;;5.71;68.20;100399.31;5060142;28;20520;-80
2021/03/09 10:40:58;;;;;;;31.23;18.87;;;;;;;5.19;69.31;100393.09;5051989;28;21011;-79
2021/03/09 10:43:44;;;;;;;30.40;19.40;;;;;;;4.93;71.12;100400.13;5059408;28;20437;-77
2021/03/09 10:46:11;;;;;;;31.20;18.40;;;;;;;5.11;70.46;100395.41;5059006;28;20489;-78
2021/03/09 10:48:38;;;;;;;33.30;19.40;;;;;;;5.50;69.65;100398.97;5059096;28;20452;-80
2021/03/09 10:51:14;;;;;;;36.43;20.57;;;;;;;4.76;71.66;100389.78;5059092;28;20492;-80
2021/03/09 10:53:42;;;;;;;34.77;20.97;;;;;;;5.25;70.47;100392.66;5059864;28;20447;-80
2021/03/09 10:56:08;;;;;;;37.50;22.03;;;;;;;5.78;69.00;100389.97;5057764;28;20491;-80
2021/03/09 10:58:34;;;;;;;37.50;20.67;;;;;;;5.98;68.21;100391.25;5058851;28;20480;-76
2021/03/09 11:01:01;;;;;;;37.07;21.00;;;;;;;5.68;69.10;100388.91;5064314;28;20469;-80
2021/03/09 11:03:27;;;;;;;36.37;21.50;;;;;;;5.64;70.03;100390.94;5065839;28;20543;-80
2021/03/09 11:05:54;;;;;;;33.73;20.43;;;;;;;5.94;68.94;100391.56;5065723;28;20559;-79
2021/03/09 11:08:22;;;;;;;39.80;21.70;;;;;;;5.27;69.78;100389.91;5065866;28;20462;-80
2021/03/09 11:10:51;;;;;;;40.00;20.87;;;;;;;5.66;69.25;100390.84;5063410;28;20495;-79
2021/03/09 11:13:18;;;;;;;34.07;21.57;;;;;;;5.73;69.48;100388.59;5065993;28;20931;-78
2021/03/09 11:15:44;;;;;;;31.93;19.80;;;;;;;5.74;69.27;100398.25;5065677;28;21059;-78
2021/03/09 11:18:11;;;;;;;35.03;22.03;;;;;;;5.85;68.54;100385.09;5064547;28;20544;-79
2021/03/09 11:20:39;;;;;;;30.07;18.50;;;;;;;5.85;68.59;100401.03;5070494;27;21045;-78
2021/03/09 11:23:06;;;;;;;31.20;20.17;;;;;;;5.55;69.40;100388.06;5065149;28;20463;-80
2021/03/09 11:25:34;;;;;;;31.23;19.30;;;;;;;5.14;70.60;100391.69;5063943;28;20825;-80
2021/03/09 11:28:01;;;;;;;29.73;18.13;;;;;;;5.21;69.80;100383.25;5055586;28;20451;-81
2021/03/09 11:30:28;;;;;;;27.47;18.63;;;;;;;5.29;70.08;100395.97;5060029;28;20492;-79